sensor_id;sensor_type;location;lat;lon;timestamp;P1;durP1;ratioP1;P2;durP2;ratioP2
10432;SDS011;5263;48.680;9.004;2023-06-26T00:00:52;7.30;;;6.60;;
10432;SDS011;5263;48.680;9.004;2023-06-26T00:03:17;6.97;;;6.27;;
10432;SDS011;5263;48.680;9.004;2023-06-26T00:05:43;6.13;;;5.63;;
10432;SDS011;5263;48.680;9.004;2023-06-26T00:08:08;8.33;;;6.47;;
10432;SDS011;5263;48.680;9.004;2023-06-26T00:10:34;7.13;;;6.43;;
10432;SDS011;5263;48.680;9.004;2023-06-26T00:13:00;6.63;;;6.03;;
10432;SDS011;5263;48.680;9.004;2023-06-26T00:15:26;7.07;;;6.40;;
10432;SDS011;5263;48.680;9.004;2023-06-26T00:17:56;7.10;;;6.40;;
10432;SDS011;5263;48.680;9.004;2023-06-26T00:20:22;9.57;;;7.00;;
10432;SDS011;5263;48.680;9.004;2023-06-26T00:22:48;7.70;;;6.07;;
10432;SDS011;5263;48.680;9.004;2023-06-26T00:25:15;6.43;;;5.90;;
10432;SDS011;5263;48.680;9.004;2023-06-26T00:27:41;6.33;;;5.83;;
10432;SDS011;5263;48.680;9.004;2023-06-26T00:30:07;6.23;;;5.73;;
10432;SDS011;5263;48.680;9.004;2023-06-26T00:32:33;6.93;;;6.33;;
10432;SDS011;5263;48.680;9.004;2023-06-26T00:34:59;7.57;;;6.30;;
10432;SDS011;5263;48.680;9.004;2023-06-26T00:37:24;7.30;;;6.60;;
10432;SDS011;5263;48.680;9.004;2023-06-26T00:39:50;7.17;;;6.37;;
10432;SDS011;5263;48.680;9.004;2023-06-26T00:42:16;7.60;;;6.83;;
10432;SDS011;5263;48.680;9.004;2023-06-26T00:44:41;7.30;;;6.57;;
10432;SDS011;5263;48.680;9.004;2023-06-26T00:47:07;8.47;;;7.67;;
10432;SDS011;5263;48.680;9.004;2023-06-26T00:49:39;6.40;;;5.97;;
10432;SDS011;5263;48.680;9.004;2023-06-26T00:52:05;7.13;;;6.60;;
10432;SDS011;5263;48.680;9.004;2023-06-26T00:54:31;6.83;;;6.20;;
10432;SDS011;5263;48.680;9.004;2023-06-26T00:56:57;7.13;;;6.43;;
10432;SDS011;5263;48.680;9.004;2023-06-26T00:59:23;7.03;;;6.43;;
10432;SDS011;5263;48.680;9.004;2023-06-26T01:01:48;7.03;;;6.50;;
10432;SDS011;5263;48.680;9.004;2023-06-26T01:04:14;6.80;;;6.27;;
10432;SDS011;5263;48.680;9.004;2023-06-26T01:06:46;7.07;;;6.43;;
10432;SDS011;5263;48.680;9.004;2023-06-26T01:09:20;8.40;;;6.97;;
10432;SDS011;5263;48.680;9.004;2023-06-26T01:11:46;6.20;;;5.70;;
10432;SDS011;5263;48.680;9.004;2023-06-26T01:14:12;10.63;;;6.60;;
10432;SDS011;5263;48.680;9.004;2023-06-26T01:16:38;7.40;;;6.70;;
10432;SDS011;5263;48.680;9.004;2023-06-26T01:19:13;6.83;;;6.23;;
10432;SDS011;5263;48.680;9.004;2023-06-26T01:21:50;6.00;;;5.40;;
10432;SDS011;5263;48.680;9.004;2023-06-26T01:24:22;6.73;;;6.23;;
10432;SDS011;5263;48.680;9.004;2023-06-26T01:26:52;6.80;;;6.23;;
10432;SDS011;5263;48.680;9.004;2023-06-26T01:29:18;7.03;;;5.97;;
10432;SDS011;5263;48.680;9.004;2023-06-26T01:31:46;6.97;;;6.43;;
10432;SDS011;5263;48.680;9.004;2023-06-26T01:34:15;7.87;;;7.13;;
10432;SDS011;5263;48.680;9.004;2023-06-26T01:36:42;8.10;;;7.40;;
10432;SDS011;5263;48.680;9.004;2023-06-26T01:39:08;7.10;;;6.40;;
10432;SDS011;5263;48.680;9.004;2023-06-26T01:41:34;7.60;;;6.60;;
10432;SDS011;5263;48.680;9.004;2023-06-26T01:44:08;8.03;;;5.97;;
10432;SDS011;5263;48.680;9.004;2023-06-26T01:47:00;7.50;;;6.90;;
10432;SDS011;5263;48.680;9.004;2023-06-26T01:52:45;6.63;;;5.93;;
10432;SDS011;5263;48.680;9.004;2023-06-26T01:57:52;7.53;;;6.93;;
10432;SDS011;5263;48.680;9.004;2023-06-26T02:00:21;8.70;;;6.80;;
10432;SDS011;5263;48.680;9.004;2023-06-26T02:02:48;7.40;;;6.80;;
10432;SDS011;5263;48.680;9.004;2023-06-26T02:05:13;8.50;;;7.00;;
10432;SDS011;5263;48.680;9.004;2023-06-26T02:07:39;8.20;;;7.50;;
10432;SDS011;5263;48.680;9.004;2023-06-26T02:10:05;7.37;;;6.67;;
10432;SDS011;5263;48.680;9.004;2023-06-26T02:12:31;7.23;;;6.63;;
10432;SDS011;5263;48.680;9.004;2023-06-26T02:14:57;7.67;;;6.67;;
10432;SDS011;5263;48.680;9.004;2023-06-26T02:17:22;8.17;;;7.37;;
10432;SDS011;5263;48.680;9.004;2023-06-26T02:19:48;8.17;;;7.37;;
10432;SDS011;5263;48.680;9.004;2023-06-26T02:22:14;8.40;;;6.87;;
10432;SDS011;5263;48.680;9.004;2023-06-26T02:24:40;7.27;;;6.67;;
10432;SDS011;5263;48.680;9.004;2023-06-26T02:27:06;7.97;;;7.20;;
10432;SDS011;5263;48.680;9.004;2023-06-26T02:29:32;7.63;;;7.00;;
10432;SDS011;5263;48.680;9.004;2023-06-26T02:31:58;7.97;;;6.83;;
10432;SDS011;5263;48.680;9.004;2023-06-26T02:34:23;7.57;;;6.87;;
10432;SDS011;5263;48.680;9.004;2023-06-26T02:36:49;7.30;;;6.67;;
10432;SDS011;5263;48.680;9.004;2023-06-26T02:39:14;7.17;;;6.50;;
10432;SDS011;5263;48.680;9.004;2023-06-26T02:41:40;7.47;;;6.87;;
10432;SDS011;5263;48.680;9.004;2023-06-26T02:44:06;6.67;;;6.17;;
10432;SDS011;5263;48.680;9.004;2023-06-26T02:46:31;7.50;;;6.87;;
10432;SDS011;5263;48.680;9.004;2023-06-26T02:48:58;7.73;;;7.03;;
10432;SDS011;5263;48.680;9.004;2023-06-26T02:51:24;7.87;;;7.23;;
10432;SDS011;5263;48.680;9.004;2023-06-26T02:53:49;7.00;;;6.40;;
10432;SDS011;5263;48.680;9.004;2023-06-26T02:56:15;7.30;;;6.70;;
10432;SDS011;5263;48.680;9.004;2023-06-26T02:58:41;8.37;;;7.57;;
10432;SDS011;5263;48.680;9.004;2023-06-26T03:01:06;7.17;;;6.47;;
10432;SDS011;5263;48.680;9.004;2023-06-26T03:03:32;7.80;;;7.20;;
10432;SDS011;5263;48.680;9.004;2023-06-26T03:06:05;7.20;;;6.60;;
10432;SDS011;5263;48.680;9.004;2023-06-26T03:08:36;8.40;;;7.70;;
10432;SDS011;5263;48.680;9.004;2023-06-26T03:11:04;7.87;;;6.50;;
10432;SDS011;5263;48.680;9.004;2023-06-26T03:13:30;9.03;;;7.20;;
10432;SDS011;5263;48.680;9.004;2023-06-26T03:15:55;8.10;;;7.10;;
10432;SDS011;5263;48.680;9.004;2023-06-26T03:18:21;10.93;;;7.30;;
10432;SDS011;5263;48.680;9.004;2023-06-26T03:20:46;7.17;;;6.47;;
10432;SDS011;5263;48.680;9.004;2023-06-26T03:23:13;7.50;;;6.80;;
10432;SDS011;5263;48.680;9.004;2023-06-26T03:25:38;9.07;;;8.17;;
10432;SDS011;5263;48.680;9.004;2023-06-26T03:28:04;6.43;;;5.93;;
10432;SDS011;5263;48.680;9.004;2023-06-26T03:30:29;7.00;;;6.40;;
10432;SDS011;5263;48.680;9.004;2023-06-26T03:32:55;7.23;;;6.50;;
10432;SDS011;5263;48.680;9.004;2023-06-26T03:35:21;7.83;;;7.13;;
10432;SDS011;5263;48.680;9.004;2023-06-26T03:37:48;8.17;;;6.23;;
10432;SDS011;5263;48.680;9.004;2023-06-26T03:40:13;6.60;;;6.00;;
10432;SDS011;5263;48.680;9.004;2023-06-26T03:42:39;7.40;;;6.60;;
10432;SDS011;5263;48.680;9.004;2023-06-26T03:45:06;6.77;;;6.10;;
10432;SDS011;5263;48.680;9.004;2023-06-26T03:47:32;7.50;;;6.80;;
10432;SDS011;5263;48.680;9.004;2023-06-26T03:49:58;7.87;;;7.03;;
10432;SDS011;5263;48.680;9.004;2023-06-26T03:52:23;7.97;;;7.27;;
10432;SDS011;5263;48.680;9.004;2023-06-26T03:54:49;6.40;;;5.87;;
10432;SDS011;5263;48.680;9.004;2023-06-26T03:57:14;8.03;;;6.40;;
10432;SDS011;5263;48.680;9.004;2023-06-26T03:59:40;7.27;;;6.63;;
10432;SDS011;5263;48.680;9.004;2023-06-26T04:02:06;6.33;;;5.83;;
10432;SDS011;5263;48.680;9.004;2023-06-26T04:04:31;8.37;;;7.13;;
10432;SDS011;5263;48.680;9.004;2023-06-26T04:06:57;7.67;;;6.77;;
10432;SDS011;5263;48.680;9.004;2023-06-26T04:09:24;7.50;;;6.70;;
10432;SDS011;5263;48.680;9.004;2023-06-26T04:11:50;9.00;;;6.43;;
10432;SDS011;5263;48.680;9.004;2023-06-26T04:14:16;7.50;;;6.80;;
10432;SDS011;5263;48.680;9.004;2023-06-26T04:16:41;7.67;;;6.97;;
10432;SDS011;5263;48.680;9.004;2023-06-26T04:19:07;8.13;;;6.57;;
10432;SDS011;5263;48.680;9.004;2023-06-26T04:21:35;7.00;;;6.30;;
10432;SDS011;5263;48.680;9.004;2023-06-26T04:24:00;6.37;;;5.87;;
10432;SDS011;5263;48.680;9.004;2023-06-26T04:26:26;6.67;;;6.17;;
10432;SDS011;5263;48.680;9.004;2023-06-26T04:28:53;6.43;;;5.80;;
10432;SDS011;5263;48.680;9.004;2023-06-26T04:31:18;5.80;;;5.30;;
10432;SDS011;5263;48.680;9.004;2023-06-26T04:33:44;6.27;;;5.47;;
10432;SDS011;5263;48.680;9.004;2023-06-26T04:36:19;5.70;;;5.20;;
10432;SDS011;5263;48.680;9.004;2023-06-26T04:38:45;6.60;;;5.70;;
10432;SDS011;5263;48.680;9.004;2023-06-26T04:41:13;8.77;;;5.37;;
10432;SDS011;5263;48.680;9.004;2023-06-26T04:43:38;6.10;;;5.53;;
10432;SDS011;5263;48.680;9.004;2023-06-26T04:46:05;6.07;;;5.57;;
10432;SDS011;5263;48.680;9.004;2023-06-26T04:48:31;8.63;;;5.33;;
10432;SDS011;5263;48.680;9.004;2023-06-26T04:50:57;5.77;;;5.27;;
10432;SDS011;5263;48.680;9.004;2023-06-26T04:53:23;6.20;;;5.70;;
10432;SDS011;5263;48.680;9.004;2023-06-26T04:55:50;5.80;;;5.33;;
10432;SDS011;5263;48.680;9.004;2023-06-26T04:58:16;6.20;;;5.60;;
10432;SDS011;5263;48.680;9.004;2023-06-26T05:00:45;5.43;;;4.97;;
10432;SDS011;5263;48.680;9.004;2023-06-26T05:03:11;5.60;;;5.17;;
10432;SDS011;5263;48.680;9.004;2023-06-26T05:05:37;5.87;;;5.40;;
10432;SDS011;5263;48.680;9.004;2023-06-26T05:08:20;5.70;;;5.20;;
10432;SDS011;5263;48.680;9.004;2023-06-26T05:10:47;5.43;;;4.87;;
10432;SDS011;5263;48.680;9.004;2023-06-26T05:13:13;5.40;;;5.00;;
10432;SDS011;5263;48.680;9.004;2023-06-26T05:15:42;5.37;;;4.97;;
10432;SDS011;5263;48.680;9.004;2023-06-26T05:18:11;8.83;;;4.97;;
10432;SDS011;5263;48.680;9.004;2023-06-26T05:20:37;5.20;;;4.80;;
10432;SDS011;5263;48.680;9.004;2023-06-26T05:23:03;4.67;;;4.37;;
10432;SDS011;5263;48.680;9.004;2023-06-26T05:25:29;4.60;;;4.30;;
10432;SDS011;5263;48.680;9.004;2023-06-26T05:27:59;4.77;;;4.37;;
10432;SDS011;5263;48.680;9.004;2023-06-26T05:30:25;4.87;;;4.47;;
10432;SDS011;5263;48.680;9.004;2023-06-26T05:32:52;5.33;;;4.87;;
10432;SDS011;5263;48.680;9.004;2023-06-26T05:35:21;5.97;;;5.47;;
10432;SDS011;5263;48.680;9.004;2023-06-26T05:37:48;5.10;;;4.67;;
10432;SDS011;5263;48.680;9.004;2023-06-26T05:40:16;6.17;;;5.63;;
10432;SDS011;5263;48.680;9.004;2023-06-26T05:42:43;4.97;;;4.53;;
10432;SDS011;5263;48.680;9.004;2023-06-26T05:45:09;5.53;;;5.13;;
10432;SDS011;5263;48.680;9.004;2023-06-26T05:47:35;6.83;;;4.63;;
10432;SDS011;5263;48.680;9.004;2023-06-26T05:50:01;4.67;;;4.33;;
10432;SDS011;5263;48.680;9.004;2023-06-26T05:52:28;5.23;;;4.83;;
10432;SDS011;5263;48.680;9.004;2023-06-26T05:54:55;5.53;;;4.83;;
10432;SDS011;5263;48.680;9.004;2023-06-26T05:57:23;5.47;;;5.00;;
10432;SDS011;5263;48.680;9.004;2023-06-26T05:59:49;4.37;;;3.77;;
10432;SDS011;5263;48.680;9.004;2023-06-26T06:02:16;4.57;;;4.27;;
10432;SDS011;5263;48.680;9.004;2023-06-26T06:04:42;4.40;;;4.00;;
10432;SDS011;5263;48.680;9.004;2023-06-26T06:07:07;5.30;;;4.47;;
10432;SDS011;5263;48.680;9.004;2023-06-26T06:09:33;4.13;;;3.80;;
10432;SDS011;5263;48.680;9.004;2023-06-26T06:11:59;4.97;;;4.23;;
10432;SDS011;5263;48.680;9.004;2023-06-26T06:14:26;4.00;;;3.70;;
10432;SDS011;5263;48.680;9.004;2023-06-26T06:16:52;5.00;;;4.50;;
10432;SDS011;5263;48.680;9.004;2023-06-26T06:19:17;4.90;;;3.97;;
10432;SDS011;5263;48.680;9.004;2023-06-26T06:21:43;6.70;;;4.33;;
10432;SDS011;5263;48.680;9.004;2023-06-26T06:24:09;4.13;;;3.73;;
10432;SDS011;5263;48.680;9.004;2023-06-26T06:26:34;3.90;;;3.60;;
10432;SDS011;5263;48.680;9.004;2023-06-26T06:29:00;4.53;;;4.23;;
10432;SDS011;5263;48.680;9.004;2023-06-26T06:31:26;7.23;;;3.93;;
10432;SDS011;5263;48.680;9.004;2023-06-26T06:33:53;4.07;;;3.73;;
10432;SDS011;5263;48.680;9.004;2023-06-26T06:36:19;4.30;;;4.00;;
10432;SDS011;5263;48.680;9.004;2023-06-26T06:38:45;5.20;;;4.80;;
10432;SDS011;5263;48.680;9.004;2023-06-26T06:41:11;4.23;;;3.73;;
10432;SDS011;5263;48.680;9.004;2023-06-26T06:43:37;4.23;;;3.83;;
10432;SDS011;5263;48.680;9.004;2023-06-26T06:46:03;4.30;;;4.00;;
10432;SDS011;5263;48.680;9.004;2023-06-26T06:48:30;3.67;;;3.37;;
10432;SDS011;5263;48.680;9.004;2023-06-26T06:50:56;4.83;;;3.87;;
10432;SDS011;5263;48.680;9.004;2023-06-26T06:53:22;3.63;;;3.43;;
10432;SDS011;5263;48.680;9.004;2023-06-26T06:55:51;6.83;;;4.03;;
10432;SDS011;5263;48.680;9.004;2023-06-26T06:58:17;3.83;;;3.63;;
10432;SDS011;5263;48.680;9.004;2023-06-26T07:00:44;4.20;;;3.33;;
10432;SDS011;5263;48.680;9.004;2023-06-26T07:03:10;4.53;;;4.17;;
10432;SDS011;5263;48.680;9.004;2023-06-26T07:05:36;4.67;;;4.37;;
10432;SDS011;5263;48.680;9.004;2023-06-26T07:08:02;4.27;;;3.97;;
10432;SDS011;5263;48.680;9.004;2023-06-26T07:10:28;5.93;;;4.17;;
10432;SDS011;5263;48.680;9.004;2023-06-26T07:12:54;6.03;;;4.53;;
10432;SDS011;5263;48.680;9.004;2023-06-26T07:15:20;4.00;;;3.60;;
10432;SDS011;5263;48.680;9.004;2023-06-26T07:17:46;4.30;;;4.10;;
10432;SDS011;5263;48.680;9.004;2023-06-26T07:20:11;5.43;;;4.93;;
10432;SDS011;5263;48.680;9.004;2023-06-26T07:22:40;4.93;;;3.60;;
10432;SDS011;5263;48.680;9.004;2023-06-26T07:25:07;4.20;;;3.90;;
10432;SDS011;5263;48.680;9.004;2023-06-26T07:27:36;4.30;;;4.00;;
10432;SDS011;5263;48.680;9.004;2023-06-26T07:30:03;4.03;;;3.73;;
10432;SDS011;5263;48.680;9.004;2023-06-26T07:32:29;5.77;;;3.73;;
10432;SDS011;5263;48.680;9.004;2023-06-26T07:34:55;5.27;;;4.40;;
10432;SDS011;5263;48.680;9.004;2023-06-26T07:37:20;4.20;;;3.90;;
10432;SDS011;5263;48.680;9.004;2023-06-26T07:39:47;4.23;;;3.87;;
10432;SDS011;5263;48.680;9.004;2023-06-26T07:42:13;4.67;;;3.60;;
10432;SDS011;5263;48.680;9.004;2023-06-26T07:44:38;3.43;;;3.23;;
10432;SDS011;5263;48.680;9.004;2023-06-26T07:47:04;4.10;;;3.80;;
10432;SDS011;5263;48.680;9.004;2023-06-26T07:49:29;3.67;;;3.37;;
10432;SDS011;5263;48.680;9.004;2023-06-26T07:51:55;3.30;;;3.10;;
10432;SDS011;5263;48.680;9.004;2023-06-26T07:54:21;5.97;;;4.13;;
10432;SDS011;5263;48.680;9.004;2023-06-26T07:59:21;3.50;;;3.27;;
10432;SDS011;5263;48.680;9.004;2023-06-26T08:01:49;6.47;;;3.50;;
10432;SDS011;5263;48.680;9.004;2023-06-26T08:04:17;4.03;;;3.73;;
10432;SDS011;5263;48.680;9.004;2023-06-26T08:06:51;3.80;;;3.27;;
10432;SDS011;5263;48.680;9.004;2023-06-26T08:09:18;4.07;;;3.77;;
10432;SDS011;5263;48.680;9.004;2023-06-26T08:11:45;3.43;;;3.33;;
10432;SDS011;5263;48.680;9.004;2023-06-26T08:14:11;5.97;;;5.47;;
10432;SDS011;5263;48.680;9.004;2023-06-26T08:16:38;3.73;;;3.37;;
10432;SDS011;5263;48.680;9.004;2023-06-26T08:19:04;3.60;;;3.37;;
10432;SDS011;5263;48.680;9.004;2023-06-26T08:21:29;4.40;;;3.07;;
10432;SDS011;5263;48.680;9.004;2023-06-26T08:23:55;3.07;;;2.87;;
10432;SDS011;5263;48.680;9.004;2023-06-26T08:26:20;4.30;;;3.00;;
10432;SDS011;5263;48.680;9.004;2023-06-26T08:28:46;3.07;;;2.63;;
10432;SDS011;5263;48.680;9.004;2023-06-26T08:31:12;3.60;;;2.90;;
10432;SDS011;5263;48.680;9.004;2023-06-26T08:33:37;3.83;;;2.87;;
10432;SDS011;5263;48.680;9.004;2023-06-26T08:36:03;3.20;;;3.00;;
10432;SDS011;5263;48.680;9.004;2023-06-26T08:38:29;2.73;;;2.60;;
10432;SDS011;5263;48.680;9.004;2023-06-26T08:40:54;3.40;;;3.10;;
10432;SDS011;5263;48.680;9.004;2023-06-26T08:43:20;3.43;;;3.23;;
10432;SDS011;5263;48.680;9.004;2023-06-26T08:45:47;4.27;;;3.37;;
10432;SDS011;5263;48.680;9.004;2023-06-26T08:48:16;3.50;;;3.30;;
10432;SDS011;5263;48.680;9.004;2023-06-26T08:50:42;3.43;;;3.23;;
10432;SDS011;5263;48.680;9.004;2023-06-26T08:55:46;3.17;;;2.97;;
10432;SDS011;5263;48.680;9.004;2023-06-26T08:58:17;3.20;;;3.00;;
10432;SDS011;5263;48.680;9.004;2023-06-26T09:00:43;3.50;;;3.30;;
10432;SDS011;5263;48.680;9.004;2023-06-26T09:03:08;4.77;;;3.27;;
10432;SDS011;5263;48.680;9.004;2023-06-26T09:05:35;3.17;;;3.03;;
10432;SDS011;5263;48.680;9.004;2023-06-26T09:08:01;4.80;;;3.57;;
10432;SDS011;5263;48.680;9.004;2023-06-26T09:10:27;5.03;;;3.47;;
10432;SDS011;5263;48.680;9.004;2023-06-26T09:12:56;4.10;;;3.80;;
10432;SDS011;5263;48.680;9.004;2023-06-26T09:15:23;3.10;;;2.90;;
10432;SDS011;5263;48.680;9.004;2023-06-26T09:17:49;5.60;;;3.10;;
10432;SDS011;5263;48.680;9.004;2023-06-26T09:20:14;3.63;;;3.43;;
10432;SDS011;5263;48.680;9.004;2023-06-26T09:22:41;3.38;;;3.08;;
10432;SDS011;5263;48.680;9.004;2023-06-26T09:25:08;5.43;;;3.20;;
10432;SDS011;5263;48.680;9.004;2023-06-26T09:27:35;6.80;;;3.42;;
10432;SDS011;5263;48.680;9.004;2023-06-26T09:30:05;4.50;;;3.47;;
10432;SDS011;5263;48.680;9.004;2023-06-26T09:32:36;3.28;;;3.17;;
10432;SDS011;5263;48.680;9.004;2023-06-26T09:35:02;3.60;;;3.10;;
10432;SDS011;5263;48.680;9.004;2023-06-26T09:37:28;4.50;;;4.20;;
10432;SDS011;5263;48.680;9.004;2023-06-26T09:39:54;4.28;;;3.95;;
10432;SDS011;5263;48.680;9.004;2023-06-26T09:42:20;3.53;;;3.25;;
10432;SDS011;5263;48.680;9.004;2023-06-26T09:44:49;3.28;;;2.88;;
10432;SDS011;5263;48.680;9.004;2023-06-26T09:47:16;3.42;;;3.28;;
10432;SDS011;5263;48.680;9.004;2023-06-26T09:49:43;3.63;;;3.42;;
10432;SDS011;5263;48.680;9.004;2023-06-26T09:52:09;3.60;;;3.30;;
10432;SDS011;5263;48.680;9.004;2023-06-26T09:54:38;4.50;;;3.40;;
10432;SDS011;5263;48.680;9.004;2023-06-26T09:57:07;3.63;;;3.42;;
10432;SDS011;5263;48.680;9.004;2023-06-26T09:59:37;4.47;;;3.97;;
10432;SDS011;5263;48.680;9.004;2023-06-26T10:02:03;8.00;;;3.80;;
10432;SDS011;5263;48.680;9.004;2023-06-26T10:04:28;5.40;;;3.87;;
10432;SDS011;5263;48.680;9.004;2023-06-26T10:06:55;4.93;;;3.23;;
10432;SDS011;5263;48.680;9.004;2023-06-26T10:09:23;3.83;;;3.60;;
10432;SDS011;5263;48.680;9.004;2023-06-26T10:12:02;8.47;;;3.80;;
10432;SDS011;5263;48.680;9.004;2023-06-26T10:14:32;3.23;;;3.10;;
10432;SDS011;5263;48.680;9.004;2023-06-26T10:17:01;3.38;;;3.17;;
10432;SDS011;5263;48.680;9.004;2023-06-26T10:19:29;3.43;;;3.23;;
10432;SDS011;5263;48.680;9.004;2023-06-26T10:21:56;4.72;;;3.75;;
10432;SDS011;5263;48.680;9.004;2023-06-26T10:24:25;3.60;;;3.40;;
10432;SDS011;5263;48.680;9.004;2023-06-26T10:26:55;4.60;;;3.70;;
10432;SDS011;5263;48.680;9.004;2023-06-26T10:29:28;4.90;;;4.40;;
10432;SDS011;5263;48.680;9.004;2023-06-26T10:31:56;5.53;;;4.05;;
10432;SDS011;5263;48.680;9.004;2023-06-26T10:34:23;4.97;;;3.55;;
10432;SDS011;5263;48.680;9.004;2023-06-26T10:36:58;4.83;;;4.50;;
10432;SDS011;5263;48.680;9.004;2023-06-26T10:39:25;4.63;;;3.88;;
10432;SDS011;5263;48.680;9.004;2023-06-26T10:41:52;4.45;;;4.07;;
10432;SDS011;5263;48.680;9.004;2023-06-26T10:44:20;5.60;;;5.00;;
10432;SDS011;5263;48.680;9.004;2023-06-26T10:49:28;5.93;;;4.15;;
10432;SDS011;5263;48.680;9.004;2023-06-26T10:52:00;6.50;;;3.83;;
10432;SDS011;5263;48.680;9.004;2023-06-26T10:54:30;4.13;;;3.85;;
10432;SDS011;5263;48.680;9.004;2023-06-26T10:56:56;4.40;;;4.20;;
10432;SDS011;5263;48.680;9.004;2023-06-26T10:59:23;4.40;;;4.10;;
10432;SDS011;5263;48.680;9.004;2023-06-26T11:02:04;4.60;;;4.20;;
10432;SDS011;5263;48.680;9.004;2023-06-26T11:07:14;6.75;;;4.38;;
10432;SDS011;5263;48.680;9.004;2023-06-26T11:10:01;5.90;;;4.68;;
10432;SDS011;5263;48.680;9.004;2023-06-26T11:12:39;4.13;;;3.83;;
10432;SDS011;5263;48.680;9.004;2023-06-26T11:15:10;9.30;;;5.00;;
10432;SDS011;5263;48.680;9.004;2023-06-26T11:17:38;8.32;;;5.45;;
10432;SDS011;5263;48.680;9.004;2023-06-26T11:20:05;5.05;;;4.38;;
10432;SDS011;5263;48.680;9.004;2023-06-26T11:22:33;5.32;;;4.25;;
10432;SDS011;5263;48.680;9.004;2023-06-26T11:25:01;5.95;;;4.38;;
10432;SDS011;5263;48.680;9.004;2023-06-26T11:30:07;4.72;;;4.30;;
10432;SDS011;5263;48.680;9.004;2023-06-26T11:32:34;6.30;;;4.30;;
10432;SDS011;5263;48.680;9.004;2023-06-26T11:35:01;4.10;;;3.90;;
10432;SDS011;5263;48.680;9.004;2023-06-26T11:37:26;5.63;;;5.22;;
10432;SDS011;5263;48.680;9.004;2023-06-26T11:39:52;4.40;;;4.10;;
10432;SDS011;5263;48.680;9.004;2023-06-26T11:42:18;4.45;;;4.25;;
10432;SDS011;5263;48.680;9.004;2023-06-26T11:44:45;4.07;;;3.47;;
10432;SDS011;5263;48.680;9.004;2023-06-26T11:47:12;4.93;;;4.15;;
10432;SDS011;5263;48.680;9.004;2023-06-26T11:49:46;4.60;;;4.20;;
10432;SDS011;5263;48.680;9.004;2023-06-26T11:52:13;4.28;;;3.92;;
10432;SDS011;5263;48.680;9.004;2023-06-26T11:54:39;4.10;;;3.90;;
10432;SDS011;5263;48.680;9.004;2023-06-26T11:57:05;5.93;;;4.70;;
10432;SDS011;5263;48.680;9.004;2023-06-26T11:59:34;5.65;;;4.10;;
10432;SDS011;5263;48.680;9.004;2023-06-26T12:02:04;4.72;;;3.72;;
10432;SDS011;5263;48.680;9.004;2023-06-26T12:04:35;5.65;;;4.43;;
10432;SDS011;5263;48.680;9.004;2023-06-26T12:07:06;5.05;;;4.35;;
10432;SDS011;5263;48.680;9.004;2023-06-26T12:09:41;7.53;;;4.15;;
10432;SDS011;5263;48.680;9.004;2023-06-26T12:12:12;6.30;;;3.65;;
10432;SDS011;5263;48.680;9.004;2023-06-26T12:14:39;8.35;;;4.32;;
10432;SDS011;5263;48.680;9.004;2023-06-26T12:17:11;4.53;;;3.88;;
10432;SDS011;5263;48.680;9.004;2023-06-26T12:19:38;4.35;;;3.90;;
10432;SDS011;5263;48.680;9.004;2023-06-26T12:22:08;5.57;;;4.78;;
10432;SDS011;5263;48.680;9.004;2023-06-26T12:24:38;5.30;;;3.92;;
10432;SDS011;5263;48.680;9.004;2023-06-26T12:27:07;3.85;;;3.65;;
10432;SDS011;5263;48.680;9.004;2023-06-26T12:29:34;4.60;;;4.20;;
10432;SDS011;5263;48.680;9.004;2023-06-26T12:32:00;4.78;;;4.35;;
10432;SDS011;5263;48.680;9.004;2023-06-26T12:34:37;3.90;;;3.60;;
10432;SDS011;5263;48.680;9.004;2023-06-26T12:37:10;5.65;;;4.35;;
10432;SDS011;5263;48.680;9.004;2023-06-26T12:39:52;3.63;;;3.33;;
10432;SDS011;5263;48.680;9.004;2023-06-26T12:42:22;4.50;;;4.10;;
10432;SDS011;5263;48.680;9.004;2023-06-26T12:44:49;6.80;;;4.50;;
10432;SDS011;5263;48.680;9.004;2023-06-26T12:47:16;8.32;;;4.80;;
10432;SDS011;5263;48.680;9.004;2023-06-26T12:49:43;6.82;;;4.47;;
10432;SDS011;5263;48.680;9.004;2023-06-26T12:52:11;9.73;;;5.50;;
10432;SDS011;5263;48.680;9.004;2023-06-26T12:54:39;4.55;;;4.15;;
10432;SDS011;5263;48.680;9.004;2023-06-26T12:57:06;6.43;;;4.55;;
10432;SDS011;5263;48.680;9.004;2023-06-26T12:59:33;15.40;;;5.43;;
10432;SDS011;5263;48.680;9.004;2023-06-26T13:02:01;9.65;;;4.30;;
10432;SDS011;5263;48.680;9.004;2023-06-26T13:04:27;3.95;;;3.70;;
10432;SDS011;5263;48.680;9.004;2023-06-26T13:06:53;6.45;;;4.32;;
10432;SDS011;5263;48.680;9.004;2023-06-26T13:09:19;8.88;;;4.28;;
10432;SDS011;5263;48.680;9.004;2023-06-26T13:11:45;3.92;;;3.72;;
10432;SDS011;5263;48.680;9.004;2023-06-26T13:14:11;4.20;;;3.90;;
10432;SDS011;5263;48.680;9.004;2023-06-26T13:16:37;5.20;;;4.60;;
10432;SDS011;5263;48.680;9.004;2023-06-26T13:19:03;4.75;;;3.72;;
10432;SDS011;5263;48.680;9.004;2023-06-26T13:21:28;5.05;;;3.67;;
10432;SDS011;5263;48.680;9.004;2023-06-26T13:23:54;4.18;;;3.88;;
10432;SDS011;5263;48.680;9.004;2023-06-26T13:26:21;5.15;;;4.25;;
10432;SDS011;5263;48.680;9.004;2023-06-26T13:28:47;4.45;;;3.53;;
10432;SDS011;5263;48.680;9.004;2023-06-26T13:31:14;3.95;;;3.65;;
10432;SDS011;5263;48.680;9.004;2023-06-26T13:33:40;4.25;;;3.30;;
10432;SDS011;5263;48.680;9.004;2023-06-26T13:36:05;4.55;;;4.25;;
10432;SDS011;5263;48.680;9.004;2023-06-26T13:38:34;2.95;;;2.75;;
10432;SDS011;5263;48.680;9.004;2023-06-26T13:41:00;4.47;;;3.85;;
10432;SDS011;5263;48.680;9.004;2023-06-26T13:43:26;4.30;;;3.78;;
10432;SDS011;5263;48.680;9.004;2023-06-26T13:45:52;3.88;;;3.58;;
10432;SDS011;5263;48.680;9.004;2023-06-26T13:48:18;3.47;;;3.28;;
10432;SDS011;5263;48.680;9.004;2023-06-26T13:50:44;3.00;;;2.80;;
10432;SDS011;5263;48.680;9.004;2023-06-26T13:53:11;3.92;;;3.33;;
10432;SDS011;5263;48.680;9.004;2023-06-26T13:55:36;3.78;;;3.50;;
10432;SDS011;5263;48.680;9.004;2023-06-26T13:58:03;3.80;;;3.50;;
10432;SDS011;5263;48.680;9.004;2023-06-26T14:00:30;8.57;;;3.45;;
10432;SDS011;5263;48.680;9.004;2023-06-26T14:02:58;3.30;;;3.08;;
10432;SDS011;5263;48.680;9.004;2023-06-26T14:05:31;3.72;;;3.42;;
10432;SDS011;5263;48.680;9.004;2023-06-26T14:07:56;4.32;;;3.22;;
10432;SDS011;5263;48.680;9.004;2023-06-26T14:10:22;3.95;;;3.65;;
10432;SDS011;5263;48.680;9.004;2023-06-26T14:12:48;3.63;;;3.33;;
10432;SDS011;5263;48.680;9.004;2023-06-26T14:15:14;3.13;;;2.83;;
10432;SDS011;5263;48.680;9.004;2023-06-26T14:17:40;2.65;;;2.45;;
10432;SDS011;5263;48.680;9.004;2023-06-26T14:20:06;3.65;;;2.38;;
10432;SDS011;5263;48.680;9.004;2023-06-26T14:22:37;4.72;;;3.08;;
10432;SDS011;5263;48.680;9.004;2023-06-26T14:25:04;3.88;;;2.50;;
10432;SDS011;5263;48.680;9.004;2023-06-26T14:27:31;2.72;;;2.53;;
10432;SDS011;5263;48.680;9.004;2023-06-26T14:29:56;3.38;;;3.17;;
10432;SDS011;5263;48.680;9.004;2023-06-26T14:32:23;2.90;;;2.70;;
10432;SDS011;5263;48.680;9.004;2023-06-26T14:34:48;7.22;;;3.33;;
10432;SDS011;5263;48.680;9.004;2023-06-26T14:37:14;2.88;;;2.40;;
10432;SDS011;5263;48.680;9.004;2023-06-26T14:39:40;8.90;;;2.53;;
10432;SDS011;5263;48.680;9.004;2023-06-26T14:42:05;2.65;;;2.42;;
10432;SDS011;5263;48.680;9.004;2023-06-26T14:44:31;3.03;;;2.03;;
10432;SDS011;5263;48.680;9.004;2023-06-26T14:46:56;1.90;;;1.80;;
10432;SDS011;5263;48.680;9.004;2023-06-26T14:49:22;5.00;;;1.70;;
10432;SDS011;5263;48.680;9.004;2023-06-26T14:51:48;2.50;;;2.03;;
10432;SDS011;5263;48.680;9.004;2023-06-26T14:54:13;5.22;;;2.13;;
10432;SDS011;5263;48.680;9.004;2023-06-26T14:56:39;3.03;;;2.22;;
10432;SDS011;5263;48.680;9.004;2023-06-26T14:59:04;4.22;;;2.25;;
10432;SDS011;5263;48.680;9.004;2023-06-26T15:01:32;4.73;;;1.90;;
10432;SDS011;5263;48.680;9.004;2023-06-26T15:03:58;5.30;;;1.75;;
10432;SDS011;5263;48.680;9.004;2023-06-26T15:06:24;2.60;;;2.00;;
10432;SDS011;5263;48.680;9.004;2023-06-26T15:08:49;2.23;;;2.03;;
10432;SDS011;5263;48.680;9.004;2023-06-26T15:11:15;3.50;;;1.77;;
10432;SDS011;5263;48.680;9.004;2023-06-26T15:13:41;3.40;;;2.07;;
10432;SDS011;5263;48.680;9.004;2023-06-26T15:16:06;3.03;;;2.00;;
10432;SDS011;5263;48.680;9.004;2023-06-26T15:18:32;5.57;;;2.27;;